sensor_id;sensor_type;location;lat;lon;timestamp;P1;durP1;ratioP1;P2;durP2;ratioP2
4650;SDS011;2338;49.602;8.722;2023-12-29T00:00:08;10.77;;;5.87;;
4650;SDS011;2338;49.602;8.722;2023-12-29T00:02:54;7.90;;;6.17;;
4650;SDS011;2338;49.602;8.722;2023-12-29T00:05:41;8.20;;;5.43;;
4650;SDS011;2338;49.602;8.722;2023-12-29T00:08:27;7.53;;;5.63;;
4650;SDS011;2338;49.602;8.722;2023-12-29T00:11:16;8.70;;;5.10;;
4650;SDS011;2338;49.602;8.722;2023-12-29T00:14:02;10.70;;;5.70;;
4650;SDS011;2338;49.602;8.722;2023-12-29T00:16:48;6.70;;;5.80;;
4650;SDS011;2338;49.602;8.722;2023-12-29T00:19:33;8.03;;;5.20;;
4650;SDS011;2338;49.602;8.722;2023-12-29T00:22:20;8.80;;;6.10;;
4650;SDS011;2338;49.602;8.722;2023-12-29T00:25:07;6.23;;;5.10;;
4650;SDS011;2338;49.602;8.722;2023-12-29T00:27:53;6.23;;;5.43;;
4650;SDS011;2338;49.602;8.722;2023-12-29T00:30:39;6.87;;;5.57;;
4650;SDS011;2338;49.602;8.722;2023-12-29T00:33:25;7.53;;;5.07;;
4650;SDS011;2338;49.602;8.722;2023-12-29T00:36:14;8.77;;;5.50;;
4650;SDS011;2338;49.602;8.722;2023-12-29T00:39:01;8.60;;;5.00;;
4650;SDS011;2338;49.602;8.722;2023-12-29T00:41:47;8.37;;;6.27;;
4650;SDS011;2338;49.602;8.722;2023-12-29T00:44:33;6.37;;;4.70;;
4650;SDS011;2338;49.602;8.722;2023-12-29T00:47:18;7.03;;;5.33;;
4650;SDS011;2338;49.602;8.722;2023-12-29T00:50:07;8.63;;;5.43;;
4650;SDS011;2338;49.602;8.722;2023-12-29T00:52:53;8.50;;;4.30;;
4650;SDS011;2338;49.602;8.722;2023-12-29T00:55:40;5.87;;;4.53;;
4650;SDS011;2338;49.602;8.722;2023-12-29T00:58:25;4.77;;;4.27;;
4650;SDS011;2338;49.602;8.722;2023-12-29T01:01:11;5.60;;;4.70;;
4650;SDS011;2338;49.602;8.722;2023-12-29T01:03:57;7.93;;;5.90;;
4650;SDS011;2338;49.602;8.722;2023-12-29T01:06:42;6.73;;;4.80;;
4650;SDS011;2338;49.602;8.722;2023-12-29T01:09:28;6.73;;;5.00;;
4650;SDS011;2338;49.602;8.722;2023-12-29T01:12:15;6.43;;;5.23;;
4650;SDS011;2338;49.602;8.722;2023-12-29T01:15:00;10.00;;;5.70;;
4650;SDS011;2338;49.602;8.722;2023-12-29T01:17:46;5.10;;;4.60;;
4650;SDS011;2338;49.602;8.722;2023-12-29T01:20:32;5.63;;;4.63;;
4650;SDS011;2338;49.602;8.722;2023-12-29T01:23:18;7.03;;;5.40;;
4650;SDS011;2338;49.602;8.722;2023-12-29T01:26:03;6.50;;;5.10;;
4650;SDS011;2338;49.602;8.722;2023-12-29T01:28:50;7.87;;;5.40;;
4650;SDS011;2338;49.602;8.722;2023-12-29T01:31:36;7.37;;;5.33;;
4650;SDS011;2338;49.602;8.722;2023-12-29T01:34:22;8.00;;;5.70;;
4650;SDS011;2338;49.602;8.722;2023-12-29T01:37:07;7.20;;;5.40;;
4650;SDS011;2338;49.602;8.722;2023-12-29T01:39:53;7.47;;;5.60;;
4650;SDS011;2338;49.602;8.722;2023-12-29T01:42:40;14.67;;;5.50;;
4650;SDS011;2338;49.602;8.722;2023-12-29T01:45:27;8.17;;;4.77;;
4650;SDS011;2338;49.602;8.722;2023-12-29T01:48:13;8.53;;;6.20;;
4650;SDS011;2338;49.602;8.722;2023-12-29T01:50:59;9.77;;;6.13;;
4650;SDS011;2338;49.602;8.722;2023-12-29T01:53:45;7.00;;;5.60;;
4650;SDS011;2338;49.602;8.722;2023-12-29T01:56:31;7.20;;;5.60;;
4650;SDS011;2338;49.602;8.722;2023-12-29T01:59:17;6.73;;;5.70;;
4650;SDS011;2338;49.602;8.722;2023-12-29T02:02:05;9.23;;;6.00;;
4650;SDS011;2338;49.602;8.722;2023-12-29T02:04:51;8.97;;;6.30;;
4650;SDS011;2338;49.602;8.722;2023-12-29T02:07:36;6.93;;;4.80;;
4650;SDS011;2338;49.602;8.722;2023-12-29T02:10:22;7.90;;;5.77;;
4650;SDS011;2338;49.602;8.722;2023-12-29T02:13:09;8.60;;;5.43;;
4650;SDS011;2338;49.602;8.722;2023-12-29T02:15:54;11.20;;;5.53;;
4650;SDS011;2338;49.602;8.722;2023-12-29T02:18:46;7.40;;;4.93;;
4650;SDS011;2338;49.602;8.722;2023-12-29T02:21:33;6.13;;;5.50;;
4650;SDS011;2338;49.602;8.722;2023-12-29T02:24:19;6.07;;;4.47;;
4650;SDS011;2338;49.602;8.722;2023-12-29T02:27:16;9.43;;;5.37;;
4650;SDS011;2338;49.602;8.722;2023-12-29T02:30:09;10.30;;;5.63;;
4650;SDS011;2338;49.602;8.722;2023-12-29T02:32:59;5.90;;;5.27;;
4650;SDS011;2338;49.602;8.722;2023-12-29T02:35:46;8.10;;;4.87;;
4650;SDS011;2338;49.602;8.722;2023-12-29T02:38:34;6.63;;;5.17;;
4650;SDS011;2338;49.602;8.722;2023-12-29T02:41:20;6.83;;;5.40;;
4650;SDS011;2338;49.602;8.722;2023-12-29T02:44:07;6.80;;;5.33;;
4650;SDS011;2338;49.602;8.722;2023-12-29T02:46:53;7.17;;;4.80;;
4650;SDS011;2338;49.602;8.722;2023-12-29T02:49:38;5.37;;;4.43;;
4650;SDS011;2338;49.602;8.722;2023-12-29T02:52:24;6.73;;;5.33;;
4650;SDS011;2338;49.602;8.722;2023-12-29T02:55:09;6.47;;;4.10;;
4650;SDS011;2338;49.602;8.722;2023-12-29T02:57:55;5.63;;;4.80;;
4650;SDS011;2338;49.602;8.722;2023-12-29T03:00:42;6.97;;;5.20;;
4650;SDS011;2338;49.602;8.722;2023-12-29T03:03:27;5.63;;;4.50;;
4650;SDS011;2338;49.602;8.722;2023-12-29T03:06:13;8.17;;;4.80;;
4650;SDS011;2338;49.602;8.722;2023-12-29T03:08:59;6.67;;;3.93;;
4650;SDS011;2338;49.602;8.722;2023-12-29T03:11:44;4.70;;;4.20;;
4650;SDS011;2338;49.602;8.722;2023-12-29T03:14:30;4.93;;;4.20;;
4650;SDS011;2338;49.602;8.722;2023-12-29T03:17:17;5.63;;;3.60;;
4650;SDS011;2338;49.602;8.722;2023-12-29T03:20:03;7.90;;;3.87;;
4650;SDS011;2338;49.602;8.722;2023-12-29T03:22:50;6.17;;;3.87;;
4650;SDS011;2338;49.602;8.722;2023-12-29T03:25:36;6.30;;;4.00;;
4650;SDS011;2338;49.602;8.722;2023-12-29T03:28:22;5.47;;;4.40;;
4650;SDS011;2338;49.602;8.722;2023-12-29T03:31:07;5.03;;;3.70;;
4650;SDS011;2338;49.602;8.722;2023-12-29T03:33:54;5.27;;;3.90;;
4650;SDS011;2338;49.602;8.722;2023-12-29T03:36:40;4.73;;;3.07;;
4650;SDS011;2338;49.602;8.722;2023-12-29T03:39:25;4.47;;;3.63;;
4650;SDS011;2338;49.602;8.722;2023-12-29T03:42:11;5.23;;;3.40;;
4650;SDS011;2338;49.602;8.722;2023-12-29T03:44:57;3.90;;;3.17;;
4650;SDS011;2338;49.602;8.722;2023-12-29T03:47:42;6.90;;;3.33;;
4650;SDS011;2338;49.602;8.722;2023-12-29T03:50:29;3.70;;;3.07;;
4650;SDS011;2338;49.602;8.722;2023-12-29T03:53:15;4.70;;;3.50;;
4650;SDS011;2338;49.602;8.722;2023-12-29T03:56:03;5.57;;;3.60;;
4650;SDS011;2338;49.602;8.722;2023-12-29T03:58:50;4.90;;;3.10;;
4650;SDS011;2338;49.602;8.722;2023-12-29T04:01:35;7.70;;;3.57;;
4650;SDS011;2338;49.602;8.722;2023-12-29T04:04:21;4.80;;;3.13;;
4650;SDS011;2338;49.602;8.722;2023-12-29T04:07:08;6.93;;;3.67;;
4650;SDS011;2338;49.602;8.722;2023-12-29T04:09:53;5.40;;;3.40;;
4650;SDS011;2338;49.602;8.722;2023-12-29T04:12:39;4.20;;;3.00;;
4650;SDS011;2338;49.602;8.722;2023-12-29T04:15:25;7.60;;;3.20;;
4650;SDS011;2338;49.602;8.722;2023-12-29T04:18:11;4.37;;;3.13;;
4650;SDS011;2338;49.602;8.722;2023-12-29T04:20:56;4.40;;;2.93;;
4650;SDS011;2338;49.602;8.722;2023-12-29T04:23:43;6.33;;;3.40;;
4650;SDS011;2338;49.602;8.722;2023-12-29T04:26:29;4.33;;;2.97;;
4650;SDS011;2338;49.602;8.722;2023-12-29T04:29:14;9.13;;;3.70;;
4650;SDS011;2338;49.602;8.722;2023-12-29T04:32:00;4.20;;;3.37;;
4650;SDS011;2338;49.602;8.722;2023-12-29T04:34:46;4.33;;;3.20;;
4650;SDS011;2338;49.602;8.722;2023-12-29T04:37:31;4.83;;;3.60;;
4650;SDS011;2338;49.602;8.722;2023-12-29T04:40:18;12.07;;;3.90;;
4650;SDS011;2338;49.602;8.722;2023-12-29T04:43:04;4.13;;;3.50;;
4650;SDS011;2338;49.602;8.722;2023-12-29T04:45:50;6.13;;;3.83;;
4650;SDS011;2338;49.602;8.722;2023-12-29T04:48:36;5.23;;;4.23;;
4650;SDS011;2338;49.602;8.722;2023-12-29T04:51:22;5.53;;;3.97;;
4650;SDS011;2338;49.602;8.722;2023-12-29T04:54:08;4.83;;;3.73;;
4650;SDS011;2338;49.602;8.722;2023-12-29T04:56:55;5.30;;;4.67;;
4650;SDS011;2338;49.602;8.722;2023-12-29T04:59:40;6.53;;;4.40;;
4650;SDS011;2338;49.602;8.722;2023-12-29T05:02:26;5.57;;;4.57;;
4650;SDS011;2338;49.602;8.722;2023-12-29T05:05:11;6.17;;;3.87;;
4650;SDS011;2338;49.602;8.722;2023-12-29T05:07:57;5.80;;;4.30;;
4650;SDS011;2338;49.602;8.722;2023-12-29T05:10:42;4.20;;;3.80;;
4650;SDS011;2338;49.602;8.722;2023-12-29T05:13:30;8.00;;;3.90;;
4650;SDS011;2338;49.602;8.722;2023-12-29T05:16:15;7.60;;;4.73;;
4650;SDS011;2338;49.602;8.722;2023-12-29T05:19:01;3.63;;;3.23;;
4650;SDS011;2338;49.602;8.722;2023-12-29T05:21:47;6.50;;;3.50;;
4650;SDS011;2338;49.602;8.722;2023-12-29T05:24:35;4.40;;;3.40;;
4650;SDS011;2338;49.602;8.722;2023-12-29T05:27:21;5.03;;;3.30;;
4650;SDS011;2338;49.602;8.722;2023-12-29T05:30:08;7.80;;;3.87;;
4650;SDS011;2338;49.602;8.722;2023-12-29T05:32:55;7.60;;;4.27;;
4650;SDS011;2338;49.602;8.722;2023-12-29T05:35:40;7.20;;;4.13;;
4650;SDS011;2338;49.602;8.722;2023-12-29T05:38:26;12.50;;;4.10;;
4650;SDS011;2338;49.602;8.722;2023-12-29T05:41:12;5.00;;;3.73;;
4650;SDS011;2338;49.602;8.722;2023-12-29T05:43:58;4.77;;;4.00;;
4650;SDS011;2338;49.602;8.722;2023-12-29T05:46:47;5.93;;;3.90;;
4650;SDS011;2338;49.602;8.722;2023-12-29T05:49:32;4.20;;;3.37;;
4650;SDS011;2338;49.602;8.722;2023-12-29T05:52:22;4.63;;;3.70;;
4650;SDS011;2338;49.602;8.722;2023-12-29T05:55:08;5.77;;;3.83;;
4650;SDS011;2338;49.602;8.722;2023-12-29T05:57:54;7.90;;;4.40;;
4650;SDS011;2338;49.602;8.722;2023-12-29T06:00:39;6.50;;;4.50;;
4650;SDS011;2338;49.602;8.722;2023-12-29T06:03:27;6.77;;;4.60;;
4650;SDS011;2338;49.602;8.722;2023-12-29T06:06:12;7.83;;;4.33;;
4650;SDS011;2338;49.602;8.722;2023-12-29T06:08:58;6.67;;;4.03;;
4650;SDS011;2338;49.602;8.722;2023-12-29T06:11:43;6.73;;;3.83;;
4650;SDS011;2338;49.602;8.722;2023-12-29T06:14:29;4.70;;;4.20;;
4650;SDS011;2338;49.602;8.722;2023-12-29T06:17:15;11.97;;;4.60;;
4650;SDS011;2338;49.602;8.722;2023-12-29T06:20:02;5.60;;;4.13;;
4650;SDS011;2338;49.602;8.722;2023-12-29T06:22:49;6.23;;;3.97;;
4650;SDS011;2338;49.602;8.722;2023-12-29T06:25:35;4.07;;;3.53;;
4650;SDS011;2338;49.602;8.722;2023-12-29T06:28:23;5.53;;;3.87;;
4650;SDS011;2338;49.602;8.722;2023-12-29T06:31:09;5.07;;;3.40;;
4650;SDS011;2338;49.602;8.722;2023-12-29T06:33:54;4.33;;;3.63;;
4650;SDS011;2338;49.602;8.722;2023-12-29T06:36:41;4.20;;;3.80;;
4650;SDS011;2338;49.602;8.722;2023-12-29T06:39:27;5.13;;;3.90;;
4650;SDS011;2338;49.602;8.722;2023-12-29T06:42:12;4.53;;;3.33;;
4650;SDS011;2338;49.602;8.722;2023-12-29T06:44:58;3.87;;;3.30;;
4650;SDS011;2338;49.602;8.722;2023-12-29T06:47:44;4.30;;;3.30;;
4650;SDS011;2338;49.602;8.722;2023-12-29T06:50:30;4.50;;;3.60;;
4650;SDS011;2338;49.602;8.722;2023-12-29T06:53:16;3.60;;;3.20;;
4650;SDS011;2338;49.602;8.722;2023-12-29T06:56:02;3.23;;;2.93;;
4650;SDS011;2338;49.602;8.722;2023-12-29T06:58:48;4.20;;;3.40;;
4650;SDS011;2338;49.602;8.722;2023-12-29T07:01:34;4.50;;;3.47;;
4650;SDS011;2338;49.602;8.722;2023-12-29T07:04:24;9.00;;;3.23;;
4650;SDS011;2338;49.602;8.722;2023-12-29T07:07:10;6.30;;;3.20;;
4650;SDS011;2338;49.602;8.722;2023-12-29T07:09:57;4.63;;;3.67;;
4650;SDS011;2338;49.602;8.722;2023-12-29T07:12:42;5.60;;;4.10;;
4650;SDS011;2338;49.602;8.722;2023-12-29T07:15:28;4.50;;;3.20;;
4650;SDS011;2338;49.602;8.722;2023-12-29T07:18:14;4.70;;;3.00;;
4650;SDS011;2338;49.602;8.722;2023-12-29T07:21:00;3.97;;;3.30;;
4650;SDS011;2338;49.602;8.722;2023-12-29T07:23:45;3.90;;;3.37;;
4650;SDS011;2338;49.602;8.722;2023-12-29T07:26:33;7.60;;;5.73;;
4650;SDS011;2338;49.602;8.722;2023-12-29T07:29:19;6.90;;;3.87;;
4650;SDS011;2338;49.602;8.722;2023-12-29T07:32:05;7.97;;;4.13;;
4650;SDS011;2338;49.602;8.722;2023-12-29T07:34:51;5.97;;;4.33;;
4650;SDS011;2338;49.602;8.722;2023-12-29T07:37:36;4.60;;;3.53;;
4650;SDS011;2338;49.602;8.722;2023-12-29T07:40:22;6.33;;;3.73;;
4650;SDS011;2338;49.602;8.722;2023-12-29T07:43:09;4.20;;;3.80;;
4650;SDS011;2338;49.602;8.722;2023-12-29T07:45:54;4.70;;;3.40;;
4650;SDS011;2338;49.602;8.722;2023-12-29T07:48:40;4.63;;;3.10;;
4650;SDS011;2338;49.602;8.722;2023-12-29T07:51:26;4.30;;;2.90;;
4650;SDS011;2338;49.602;8.722;2023-12-29T07:54:11;5.80;;;3.27;;
4650;SDS011;2338;49.602;8.722;2023-12-29T07:56:57;4.60;;;2.43;;
4650;SDS011;2338;49.602;8.722;2023-12-29T07:59:44;3.73;;;2.30;;
4650;SDS011;2338;49.602;8.722;2023-12-29T08:02:29;3.80;;;2.50;;
4650;SDS011;2338;49.602;8.722;2023-12-29T08:05:15;4.13;;;2.90;;
4650;SDS011;2338;49.602;8.722;2023-12-29T08:08:01;3.23;;;2.20;;
4650;SDS011;2338;49.602;8.722;2023-12-29T08:10:47;3.87;;;3.47;;
4650;SDS011;2338;49.602;8.722;2023-12-29T08:13:33;4.23;;;2.73;;
4650;SDS011;2338;49.602;8.722;2023-12-29T08:16:20;3.60;;;2.60;;
4650;SDS011;2338;49.602;8.722;2023-12-29T08:19:05;3.37;;;2.50;;
4650;SDS011;2338;49.602;8.722;2023-12-29T08:21:52;4.70;;;2.83;;
4650;SDS011;2338;49.602;8.722;2023-12-29T08:24:39;5.03;;;3.20;;
4650;SDS011;2338;49.602;8.722;2023-12-29T08:27:26;4.80;;;2.80;;
4650;SDS011;2338;49.602;8.722;2023-12-29T08:30:12;4.23;;;3.00;;
4650;SDS011;2338;49.602;8.722;2023-12-29T08:32:59;6.13;;;3.13;;
4650;SDS011;2338;49.602;8.722;2023-12-29T08:35:45;3.90;;;3.10;;
4650;SDS011;2338;49.602;8.722;2023-12-29T08:38:31;4.57;;;3.00;;
4650;SDS011;2338;49.602;8.722;2023-12-29T08:41:16;3.47;;;2.57;;
4650;SDS011;2338;49.602;8.722;2023-12-29T08:44:02;4.70;;;2.80;;
4650;SDS011;2338;49.602;8.722;2023-12-29T08:46:48;6.67;;;3.37;;
4650;SDS011;2338;49.602;8.722;2023-12-29T08:49:35;5.80;;;3.13;;
4650;SDS011;2338;49.602;8.722;2023-12-29T08:52:21;4.30;;;2.70;;
4650;SDS011;2338;49.602;8.722;2023-12-29T08:55:07;4.90;;;2.90;;
4650;SDS011;2338;49.602;8.722;2023-12-29T08:57:53;3.00;;;2.07;;
4650;SDS011;2338;49.602;8.722;2023-12-29T09:00:39;3.33;;;2.70;;
4650;SDS011;2338;49.602;8.722;2023-12-29T09:03:25;5.60;;;2.90;;
4650;SDS011;2338;49.602;8.722;2023-12-29T09:06:12;6.40;;;2.93;;
4650;SDS011;2338;49.602;8.722;2023-12-29T09:08:58;4.60;;;2.93;;
4650;SDS011;2338;49.602;8.722;2023-12-29T09:11:44;3.17;;;2.43;;
4650;SDS011;2338;49.602;8.722;2023-12-29T09:14:30;7.97;;;2.40;;
4650;SDS011;2338;49.602;8.722;2023-12-29T09:17:18;3.27;;;2.30;;
4650;SDS011;2338;49.602;8.722;2023-12-29T09:20:03;3.03;;;2.10;;
4650;SDS011;2338;49.602;8.722;2023-12-29T09:22:53;6.73;;;2.57;;
4650;SDS011;2338;49.602;8.722;2023-12-29T09:25:39;7.40;;;2.17;;
4650;SDS011;2338;49.602;8.722;2023-12-29T09:28:25;3.03;;;1.97;;
4650;SDS011;2338;49.602;8.722;2023-12-29T09:31:11;4.80;;;2.30;;
4650;SDS011;2338;49.602;8.722;2023-12-29T09:33:57;3.70;;;2.17;;
4650;SDS011;2338;49.602;8.722;2023-12-29T09:36:44;8.60;;;2.20;;
4650;SDS011;2338;49.602;8.722;2023-12-29T09:39:31;4.43;;;2.70;;
4650;SDS011;2338;49.602;8.722;2023-12-29T09:42:18;3.30;;;2.10;;
4650;SDS011;2338;49.602;8.722;2023-12-29T09:45:07;3.20;;;2.13;;
4650;SDS011;2338;49.602;8.722;2023-12-29T09:47:56;5.10;;;2.07;;
4650;SDS011;2338;49.602;8.722;2023-12-29T09:50:43;3.90;;;2.07;;
4650;SDS011;2338;49.602;8.722;2023-12-29T09:53:29;2.60;;;1.80;;
4650;SDS011;2338;49.602;8.722;2023-12-29T09:56:17;3.93;;;2.93;;
4650;SDS011;2338;49.602;8.722;2023-12-29T09:59:03;3.87;;;2.60;;
4650;SDS011;2338;49.602;8.722;2023-12-29T10:01:49;7.70;;;2.20;;
4650;SDS011;2338;49.602;8.722;2023-12-29T10:04:36;4.33;;;2.10;;
4650;SDS011;2338;49.602;8.722;2023-12-29T10:07:24;2.77;;;1.90;;
4650;SDS011;2338;49.602;8.722;2023-12-29T10:10:12;2.93;;;1.93;;
4650;SDS011;2338;49.602;8.722;2023-12-29T10:13:02;5.37;;;2.60;;
4650;SDS011;2338;49.602;8.722;2023-12-29T10:15:53;4.33;;;2.13;;
4650;SDS011;2338;49.602;8.722;2023-12-29T10:18:44;4.00;;;1.90;;
4650;SDS011;2338;49.602;8.722;2023-12-29T10:21:40;2.90;;;2.50;;
4650;SDS011;2338;49.602;8.722;2023-12-29T10:24:33;4.70;;;2.07;;
4650;SDS011;2338;49.602;8.722;2023-12-29T10:27:20;5.20;;;1.90;;
4650;SDS011;2338;49.602;8.722;2023-12-29T10:30:09;4.87;;;2.30;;
4650;SDS011;2338;49.602;8.722;2023-12-29T10:32:56;3.30;;;2.03;;
4650;SDS011;2338;49.602;8.722;2023-12-29T10:35:47;3.43;;;2.30;;
4650;SDS011;2338;49.602;8.722;2023-12-29T10:38:42;3.60;;;2.47;;
4650;SDS011;2338;49.602;8.722;2023-12-29T10:41:28;3.00;;;2.03;;
4650;SDS011;2338;49.602;8.722;2023-12-29T10:44:14;2.10;;;1.70;;
4650;SDS011;2338;49.602;8.722;2023-12-29T10:47:08;4.40;;;1.70;;
4650;SDS011;2338;49.602;8.722;2023-12-29T10:49:54;3.53;;;1.60;;
4650;SDS011;2338;49.602;8.722;2023-12-29T10:52:43;2.67;;;1.80;;
4650;SDS011;2338;49.602;8.722;2023-12-29T10:55:31;2.37;;;1.60;;
4650;SDS011;2338;49.602;8.722;2023-12-29T10:58:16;2.70;;;1.87;;
4650;SDS011;2338;49.602;8.722;2023-12-29T11:01:03;3.37;;;2.00;;
4650;SDS011;2338;49.602;8.722;2023-12-29T11:04:04;3.37;;;2.00;;
4650;SDS011;2338;49.602;8.722;2023-12-29T11:06:52;4.00;;;2.57;;
4650;SDS011;2338;49.602;8.722;2023-12-29T11:09:38;3.87;;;2.33;;
4650;SDS011;2338;49.602;8.722;2023-12-29T11:12:25;3.90;;;2.13;;
4650;SDS011;2338;49.602;8.722;2023-12-29T11:15:10;4.53;;;1.60;;
4650;SDS011;2338;49.602;8.722;2023-12-29T11:17:59;3.13;;;1.90;;
4650;SDS011;2338;49.602;8.722;2023-12-29T11:20:47;4.73;;;2.07;;
4650;SDS011;2338;49.602;8.722;2023-12-29T11:23:33;2.70;;;1.80;;
4650;SDS011;2338;49.602;8.722;2023-12-29T11:26:19;4.27;;;1.77;;
4650;SDS011;2338;49.602;8.722;2023-12-29T11:29:06;3.13;;;1.90;;
4650;SDS011;2338;49.602;8.722;2023-12-29T11:31:53;3.20;;;1.90;;
4650;SDS011;2338;49.602;8.722;2023-12-29T11:34:41;3.30;;;1.90;;
4650;SDS011;2338;49.602;8.722;2023-12-29T11:37:36;7.20;;;2.00;;
4650;SDS011;2338;49.602;8.722;2023-12-29T11:40:38;3.60;;;1.60;;
4650;SDS011;2338;49.602;8.722;2023-12-29T11:43:29;3.77;;;2.03;;
4650;SDS011;2338;49.602;8.722;2023-12-29T11:49:29;3.67;;;1.50;;
4650;SDS011;2338;49.602;8.722;2023-12-29T11:52:46;4.13;;;1.73;;
4650;SDS011;2338;49.602;8.722;2023-12-29T11:55:34;2.80;;;1.50;;
4650;SDS011;2338;49.602;8.722;2023-12-29T11:58:24;2.60;;;1.33;;
4650;SDS011;2338;49.602;8.722;2023-12-29T12:01:12;2.90;;;1.63;;
4650;SDS011;2338;49.602;8.722;2023-12-29T12:03:57;2.80;;;1.70;;
4650;SDS011;2338;49.602;8.722;2023-12-29T12:06:43;3.80;;;1.80;;
4650;SDS011;2338;49.602;8.722;2023-12-29T12:09:30;3.10;;;1.67;;
4650;SDS011;2338;49.602;8.722;2023-12-29T12:15:31;4.67;;;2.20;;
4650;SDS011;2338;49.602;8.722;2023-12-29T12:18:17;4.20;;;1.83;;
4650;SDS011;2338;49.602;8.722;2023-12-29T12:21:03;3.10;;;1.60;;
4650;SDS011;2338;49.602;8.722;2023-12-29T12:23:50;4.10;;;1.40;;
4650;SDS011;2338;49.602;8.722;2023-12-29T12:26:38;1.87;;;1.10;;
4650;SDS011;2338;49.602;8.722;2023-12-29T12:29:25;4.07;;;1.50;;
4650;SDS011;2338;49.602;8.722;2023-12-29T12:32:12;2.10;;;1.20;;
4650;SDS011;2338;49.602;8.722;2023-12-29T12:35:01;4.47;;;1.30;;
4650;SDS011;2338;49.602;8.722;2023-12-29T12:37:47;2.73;;;1.30;;
4650;SDS011;2338;49.602;8.722;2023-12-29T12:40:33;3.30;;;1.33;;
4650;SDS011;2338;49.602;8.722;2023-12-29T12:43:20;6.13;;;1.33;;
4650;SDS011;2338;49.602;8.722;2023-12-29T12:46:10;3.17;;;1.50;;
4650;SDS011;2338;49.602;8.722;2023-12-29T12:48:55;4.90;;;2.80;;
4650;SDS011;2338;49.602;8.722;2023-12-29T12:51:44;3.80;;;1.93;;
4650;SDS011;2338;49.602;8.722;2023-12-29T12:54:30;4.00;;;1.50;;
4650;SDS011;2338;49.602;8.722;2023-12-29T12:57:19;4.00;;;1.73;;
4650;SDS011;2338;49.602;8.722;2023-12-29T13:00:07;3.30;;;1.30;;
4650;SDS011;2338;49.602;8.722;2023-12-29T13:02:53;2.17;;;1.20;;
4650;SDS011;2338;49.602;8.722;2023-12-29T13:05:39;2.00;;;1.33;;
4650;SDS011;2338;49.602;8.722;2023-12-29T13:08:25;4.20;;;2.43;;
4650;SDS011;2338;49.602;8.722;2023-12-29T13:11:11;3.83;;;1.07;;
4650;SDS011;2338;49.602;8.722;2023-12-29T13:14:00;8.23;;;3.37;;
4650;SDS011;2338;49.602;8.722;2023-12-29T13:16:47;3.87;;;2.37;;
4650;SDS011;2338;49.602;8.722;2023-12-29T13:19:34;8.57;;;5.60;;
4650;SDS011;2338;49.602;8.722;2023-12-29T13:22:19;6.63;;;3.00;;
4650;SDS011;2338;49.602;8.722;2023-12-29T13:25:06;3.63;;;1.37;;
4650;SDS011;2338;49.602;8.722;2023-12-29T13:27:52;1.60;;;0.73;;
4650;SDS011;2338;49.602;8.722;2023-12-29T13:30:39;2.37;;;1.50;;
4650;SDS011;2338;49.602;8.722;2023-12-29T13:33:28;2.20;;;1.50;;
4650;SDS011;2338;49.602;8.722;2023-12-29T13:36:20;3.30;;;1.37;;
4650;SDS011;2338;49.602;8.722;2023-12-29T13:39:11;3.33;;;1.70;;
4650;SDS011;2338;49.602;8.722;2023-12-29T13:42:05;2.70;;;1.60;;
4650;SDS011;2338;49.602;8.722;2023-12-29T13:44:53;4.50;;;1.63;;
4650;SDS011;2338;49.602;8.722;2023-12-29T13:47:40;2.97;;;1.60;;
4650;SDS011;2338;49.602;8.722;2023-12-29T13:50:28;3.20;;;1.70;;
4650;SDS011;2338;49.602;8.722;2023-12-29T13:53:15;5.47;;;1.97;;
4650;SDS011;2338;49.602;8.722;2023-12-29T13:56:06;4.13;;;2.13;;
4650;SDS011;2338;49.602;8.722;2023-12-29T13:58:52;2.47;;;1.70;;
4650;SDS011;2338;49.602;8.722;2023-12-29T14:01:37;3.20;;;1.90;;
4650;SDS011;2338;49.602;8.722;2023-12-29T14:04:23;4.03;;;2.47;;
4650;SDS011;2338;49.602;8.722;2023-12-29T14:07:11;2.50;;;1.73;;
4650;SDS011;2338;49.602;8.722;2023-12-29T14:09:58;2.30;;;1.73;;
4650;SDS011;2338;49.602;8.722;2023-12-29T14:12:44;3.40;;;2.13;;
4650;SDS011;2338;49.602;8.722;2023-12-29T14:15:33;6.13;;;2.40;;
4650;SDS011;2338;49.602;8.722;2023-12-29T14:21:36;3.37;;;1.53;;
4650;SDS011;2338;49.602;8.722;2023-12-29T14:24:24;2.50;;;1.70;;
4650;SDS011;2338;49.602;8.722;2023-12-29T14:27:10;2.97;;;1.67;;
4650;SDS011;2338;49.602;8.722;2023-12-29T14:29:57;3.10;;;1.70;;
4650;SDS011;2338;49.602;8.722;2023-12-29T14:32:43;2.33;;;1.50;;
4650;SDS011;2338;49.602;8.722;2023-12-29T14:35:28;5.90;;;2.07;;
4650;SDS011;2338;49.602;8.722;2023-12-29T14:38:14;3.67;;;1.73;;
4650;SDS011;2338;49.602;8.722;2023-12-29T14:41:03;16.33;;;1.90;;
4650;SDS011;2338;49.602;8.722;2023-12-29T14:43:48;3.07;;;1.97;;
4650;SDS011;2338;49.602;8.722;2023-12-29T14:46:34;2.70;;;1.60;;
4650;SDS011;2338;49.602;8.722;2023-12-29T14:49:20;2.80;;;1.30;;
4650;SDS011;2338;49.602;8.722;2023-12-29T14:52:06;2.40;;;1.30;;
4650;SDS011;2338;49.602;8.722;2023-12-29T14:54:52;2.17;;;1.30;;
4650;SDS011;2338;49.602;8.722;2023-12-29T14:57:39;2.93;;;1.70;;
4650;SDS011;2338;49.602;8.722;2023-12-29T15:00:24;3.43;;;1.60;;
4650;SDS011;2338;49.602;8.722;2023-12-29T15:03:10;3.00;;;1.77;;
4650;SDS011;2338;49.602;8.722;2023-12-29T15:05:56;3.73;;;1.67;;
4650;SDS011;2338;49.602;8.722;2023-12-29T15:08:41;3.27;;;1.70;;
4650;SDS011;2338;49.602;8.722;2023-12-29T15:11:27;2.70;;;1.77;;
4650;SDS011;2338;49.602;8.722;2023-12-29T15:14:14;3.23;;;1.77;;
4650;SDS011;2338;49.602;8.722;2023-12-29T15:16:59;3.13;;;1.70;;
4650;SDS011;2338;49.602;8.722;2023-12-29T15:19:45;2.23;;;1.37;;
4650;SDS011;2338;49.602;8.722;2023-12-29T15:22:31;2.57;;;1.70;;
4650;SDS011;2338;49.602;8.722;2023-12-29T15:25:17;2.43;;;1.27;;
4650;SDS011;2338;49.602;8.722;2023-12-29T15:28:03;4.80;;;1.60;;
4650;SDS011;2338;49.602;8.722;2023-12-29T15:30:50;2.17;;;1.40;;
4650;SDS011;2338;49.602;8.722;2023-12-29T15:33:35;3.20;;;1.57;;
4650;SDS011;2338;49.602;8.722;2023-12-29T15:36:21;3.13;;;1.70;;
4650;SDS011;2338;49.602;8.722;2023-12-29T15:39:07;1.63;;;1.07;;
4650;SDS011;2338;49.602;8.722;2023-12-29T15:41:52;2.63;;;1.40;;
4650;SDS011;2338;49.602;8.722;2023-12-29T15:44:38;2.37;;;1.40;;
4650;SDS011;2338;49.602;8.722;2023-12-29T15:47:25;2.20;;;1.40;;
4650;SDS011;2338;49.602;8.722;2023-12-29T15:50:11;5.50;;;1.53;;
4650;SDS011;2338;49.602;8.722;2023-12-29T15:52:56;4.60;;;1.60;;
4650;SDS011;2338;49.602;8.722;2023-12-29T15:55:42;2.53;;;1.30;;
4650;SDS011;2338;49.602;8.722;2023-12-29T15:58:28;3.20;;;1.47;;
4650;SDS011;2338;49.602;8.722;2023-12-29T16:01:19;2.30;;;1.47;;
4650;SDS011;2338;49.602;8.722;2023-12-29T16:04:08;3.80;;;1.23;;
4650;SDS011;2338;49.602;8.722;2023-12-29T16:06:54;3.23;;;1.60;;
4650;SDS011;2338;49.602;8.722;2023-12-29T16:09:40;2.83;;;2.00;;
4650;SDS011;2338;49.602;8.722;2023-12-29T16:12:25;2.43;;;1.70;;
4650;SDS011;2338;49.602;8.722;2023-12-29T16:15:11;8.60;;;2.60;;
4650;SDS011;2338;49.602;8.722;2023-12-29T16:17:56;3.37;;;1.83;;
4650;SDS011;2338;49.602;8.722;2023-12-29T16:20:45;3.60;;;1.60;;
4650;SDS011;2338;49.602;8.722;2023-12-29T16:23:30;3.20;;;1.60;;
4650;SDS011;2338;49.602;8.722;2023-12-29T16:26:15;3.70;;;1.40;;
4650;SDS011;2338;49.602;8.722;2023-12-29T16:29:01;5.40;;;1.80;;
4650;SDS011;2338;49.602;8.722;2023-12-29T16:31:47;4.73;;;2.00;;
4650;SDS011;2338;49.602;8.722;2023-12-29T16:34:33;3.40;;;1.83;;
4650;SDS011;2338;49.602;8.722;2023-12-29T16:37:20;5.40;;;1.40;;
4650;SDS011;2338;49.602;8.722;2023-12-29T16:40:07;4.23;;;2.03;;
4650;SDS011;2338;49.602;8.722;2023-12-29T16:42:54;2.30;;;1.53;;
4650;SDS011;2338;49.602;8.722;2023-12-29T16:45:40;3.87;;;2.07;;
4650;SDS011;2338;49.602;8.722;2023-12-29T16:48:25;4.00;;;1.87;;
4650;SDS011;2338;49.602;8.722;2023-12-29T16:51:11;2.80;;;1.60;;
4650;SDS011;2338;49.602;8.722;2023-12-29T16:53:58;2.80;;;1.63;;
4650;SDS011;2338;49.602;8.722;2023-12-29T16:56:43;5.00;;;2.13;;
4650;SDS011;2338;49.602;8.722;2023-12-29T16:59:29;6.07;;;1.97;;
4650;SDS011;2338;49.602;8.722;2023-12-29T17:02:15;3.33;;;1.87;;
4650;SDS011;2338;49.602;8.722;2023-12-29T17:05:00;3.60;;;1.93;;
4650;SDS011;2338;49.602;8.722;2023-12-29T17:07:47;5.00;;;1.37;;
4650;SDS011;2338;49.602;8.722;2023-12-29T17:10:34;3.07;;;1.80;;
4650;SDS011;2338;49.602;8.722;2023-12-29T17:13:20;5.30;;;1.70;;
4650;SDS011;2338;49.602;8.722;2023-12-29T17:16:05;1.93;;;1.30;;
4650;SDS011;2338;49.602;8.722;2023-12-29T17:18:51;3.37;;;1.80;;
4650;SDS011;2338;49.602;8.722;2023-12-29T17:21:37;8.40;;;1.90;;
4650;SDS011;2338;49.602;8.722;2023-12-29T17:24:23;4.17;;;2.27;;